createdAt,value
2022-12-08T00:02:16.858Z,97677.09
2022-12-08T00:04:59.365Z,97675.72
2022-12-08T00:07:44.802Z,97668.13
2022-12-08T00:10:46.506Z,97668.66
2022-12-08T00:13:02.903Z,97661.41
2022-12-08T00:15:31.298Z,97674.09
2022-12-08T00:17:59.478Z,97677.91
2022-12-08T00:20:27.861Z,97674.81
2022-12-08T00:22:55.939Z,97669.19
2022-12-08T00:25:24.279Z,97671.13
2022-12-08T00:27:52.323Z,97676.56
2022-12-08T00:30:22.194Z,97676.41
2022-12-08T00:32:50.315Z,97681.72
2022-12-08T00:35:18.722Z,97678.50
2022-12-08T00:37:46.893Z,97683.91
2022-12-08T00:40:15.619Z,97676.28
2022-12-08T00:42:43.887Z,97683.06
2022-12-08T00:45:13.122Z,97679.63
2022-12-08T00:47:42.751Z,97680.97
2022-12-08T00:50:11.349Z,97693.44
2022-12-08T00:52:39.827Z,97693.78
2022-12-08T00:55:08.879Z,97694.31
2022-12-08T00:57:37.098Z,97709.81
2022-12-08T01:00:06.896Z,97703.84
2022-12-08T01:02:36.029Z,97707.09
2022-12-08T01:05:06.564Z,97701.13
2022-12-08T01:07:34.879Z,97708.94
2022-12-08T01:10:03.516Z,97712.19
2022-12-08T01:12:31.812Z,97714.44
2022-12-08T01:15:02.551Z,97724.22
2022-12-08T01:17:31.176Z,97720.41
2022-12-08T01:19:59.714Z,97717.63
2022-12-08T01:22:29.297Z,97713.94
2022-12-08T01:24:57.811Z,97720.63
2022-12-08T01:27:25.963Z,97718.78
2022-12-08T01:29:54.417Z,97714.44
2022-12-08T01:32:22.773Z,97717.41
2022-12-08T01:34:51.253Z,97708.47
2022-12-08T01:37:19.437Z,97716.28
2022-12-08T01:39:49.366Z,97699.28
2022-12-08T01:42:21.193Z,97712.84
2022-12-08T01:45:01.122Z,97705.84
2022-12-08T01:47:33.713Z,97701.41
2022-12-08T01:50:02.522Z,97700.53
2022-12-08T01:52:35.411Z,97702.50
2022-12-08T01:55:08.375Z,97697.59
2022-12-08T01:57:38.651Z,97710.63
2022-12-08T02:00:10.681Z,97700.59
2022-12-08T02:02:43.482Z,97697.09
2022-12-08T02:05:12.282Z,97705.75
2022-12-08T02:07:40.448Z,97706.22
2022-12-08T02:10:12.463Z,97703.06
2022-12-08T02:12:40.558Z,97709.72
2022-12-08T02:15:10.191Z,97703.84
2022-12-08T02:17:49.466Z,97698.72
2022-12-08T02:20:26.373Z,97707.97
2022-12-08T02:22:59.692Z,97699.53
2022-12-08T02:25:35.312Z,97693.56
2022-12-08T02:28:12.279Z,97697.88
2022-12-08T02:30:48.731Z,97700.91
2022-12-08T02:33:44.153Z,97695.78
2022-12-08T02:36:16.616Z,97697.59
2022-12-08T02:38:49.766Z,97698.16
2022-12-08T02:41:22.545Z,97692.72
2022-12-08T02:43:56.411Z,97688.38
2022-12-08T02:46:28.008Z,97697.03
2022-12-08T02:48:57.541Z,97703.94
2022-12-08T02:51:25.946Z,97692.56
2022-12-08T02:53:54.311Z,97693.16
2022-12-08T02:56:36.601Z,97698.94
2022-12-08T02:59:13.628Z,97690.81
2022-12-08T03:01:54.959Z,97700.31
2022-12-08T03:04:32.901Z,97696.53
2022-12-08T03:07:06.292Z,97698.16
2022-12-08T03:09:37.452Z,97700.84
2022-12-08T03:12:10.765Z,97700.31
2022-12-08T03:14:40.149Z,97697.03
2022-12-08T03:17:09.818Z,97703.78
2022-12-08T03:19:41.126Z,97698.16
2022-12-08T03:22:10.599Z,97701.94
2022-12-08T03:24:40.126Z,97701.91
2022-12-08T03:27:10.085Z,97699.22
2022-12-08T03:29:38.525Z,97692.06
2022-12-08T03:32:10.756Z,97687.25
2022-12-08T03:34:41.785Z,97688.38
2022-12-08T03:37:10.000Z,97690.03
2022-12-08T03:39:38.217Z,97694.00
2022-12-08T03:42:06.837Z,97700.81
2022-12-08T03:44:35.021Z,97700.81
2022-12-08T03:47:03.406Z,97694.28
2022-12-08T03:49:31.657Z,97687.75
2022-12-08T03:52:01.400Z,97685.09
2022-12-08T03:54:29.601Z,97678.25
2022-12-08T03:56:58.041Z,97683.94
2022-12-08T03:59:26.412Z,97685.31
2022-12-08T04:01:54.929Z,97690.47
2022-12-08T04:04:23.236Z,97686.09
2022-12-08T04:06:51.719Z,97681.16
2022-12-08T04:09:21.222Z,97687.00
2022-12-08T04:11:49.912Z,97690.44
2022-12-08T04:14:18.116Z,97690.44
2022-12-08T04:16:46.563Z,97690.38
2022-12-08T04:19:15.375Z,97689.31
2022-12-08T04:21:44.002Z,97686.63
2022-12-08T04:24:12.247Z,97687.97
2022-12-08T04:26:42.074Z,97686.41
2022-12-08T04:29:10.185Z,97683.88
2022-12-08T04:31:38.701Z,97690.13
2022-12-08T04:34:06.899Z,97678.44
2022-12-08T04:36:35.275Z,97681.69
2022-12-08T04:39:03.361Z,97689.28
2022-12-08T04:41:31.860Z,97677.06
2022-12-08T04:44:01.371Z,97675.28
2022-12-08T04:46:29.994Z,97688.16
2022-12-08T04:48:58.212Z,97680.31
2022-12-08T04:51:27.386Z,97680.50
2022-12-08T04:53:55.519Z,97666.19
2022-12-08T04:56:24.128Z,97678.66
2022-12-08T04:58:52.192Z,97675.84
2022-12-08T05:01:22.157Z,97684.47
2022-12-08T05:03:50.324Z,97674.28
2022-12-08T05:06:18.865Z,97677.25
2022-12-08T05:08:46.964Z,97677.97
2022-12-08T05:11:15.640Z,97676.44
2022-12-08T05:13:43.726Z,97676.72
2022-12-08T05:16:14.180Z,97676.00
2022-12-08T05:18:44.469Z,97676.88
2022-12-08T05:21:12.940Z,97680.00
2022-12-08T05:23:41.108Z,97677.03
2022-12-08T05:26:09.789Z,97681.94
2022-12-08T05:28:42.675Z,97677.34
2022-12-08T05:31:12.034Z,97673.03
2022-12-08T05:33:40.645Z,97674.63
2022-12-08T05:36:11.325Z,97670.44
2022-12-08T05:38:39.516Z,97671.66
2022-12-08T05:41:08.215Z,97668.97
2022-12-08T05:43:36.719Z,97673.84
2022-12-08T05:46:05.368Z,97677.88
2022-12-08T05:48:33.875Z,97682.50
2022-12-08T05:51:02.605Z,97684.44
2022-12-08T05:53:32.157Z,97688.03
2022-12-08T05:56:00.716Z,97674.91
2022-12-08T05:58:29.037Z,97679.19
2022-12-08T06:00:57.465Z,97680.00
2022-12-08T06:03:25.832Z,97691.97
2022-12-08T06:05:54.218Z,97695.41
2022-12-08T06:08:22.571Z,97687.00
2022-12-08T06:10:52.417Z,97676.03
2022-12-08T06:13:20.668Z,97671.09
2022-12-08T06:15:49.129Z,97672.16
2022-12-08T06:18:17.300Z,97682.66
2022-12-08T06:20:46.037Z,97685.47
2022-12-08T06:23:14.102Z,97691.16
2022-12-08T06:25:42.749Z,97691.31
2022-12-08T06:28:12.287Z,97693.97
2022-12-08T06:30:40.808Z,97697.38
2022-12-08T06:33:08.968Z,97694.88
2022-12-08T06:35:38.440Z,97699.88
2022-12-08T06:38:06.554Z,97704.34
2022-12-08T06:40:35.011Z,97715.69
2022-12-08T06:43:03.243Z,97717.84
2022-12-08T06:45:33.134Z,97715.50
2022-12-08T06:48:02.774Z,97729.41
2022-12-08T06:50:32.648Z,97727.34
2022-12-08T06:53:05.158Z,97718.75
2022-12-08T06:55:58.000Z,97729.88
2022-12-08T06:58:22.888Z,97732.06
2022-12-08T07:00:52.746Z,97721.69
2022-12-08T07:03:21.301Z,97724.53
2022-12-08T07:05:49.683Z,97722.94
2022-12-08T07:08:17.879Z,97732.72
2022-12-08T07:10:46.502Z,97731.09
2022-12-08T07:13:14.661Z,97728.38
2022-12-08T07:15:43.064Z,97732.78
2022-12-08T07:18:12.639Z,97732.38
2022-12-08T07:20:41.227Z,97727.69
2022-12-08T07:23:09.449Z,97723.13
2022-12-08T07:25:37.930Z,97726.94
2022-12-08T07:28:10.783Z,97720.78
2022-12-08T07:30:39.719Z,97724.81
2022-12-08T07:33:08.120Z,97723.44
2022-12-08T07:35:38.011Z,97715.09
2022-12-08T07:38:06.088Z,97721.34
2022-12-08T07:40:34.718Z,97722.97
2022-12-08T07:43:02.896Z,97724.88
2022-12-08T07:45:32.033Z,97727.28
2022-12-08T07:48:00.391Z,97730.00
2022-12-08T07:50:30.568Z,97728.09
2022-12-08T07:53:28.101Z,97728.47
2022-12-08T07:56:06.913Z,97720.91
2022-12-08T07:58:35.352Z,97730.50
2022-12-08T08:01:03.911Z,97725.03
2022-12-08T08:03:32.108Z,97727.41
2022-12-08T08:06:04.041Z,97731.06
2022-12-08T08:08:33.633Z,97731.84
2022-12-08T08:11:08.961Z,97730.06
2022-12-08T08:13:41.709Z,97726.22
2022-12-08T08:16:13.454Z,97724.38
2022-12-08T08:18:42.033Z,97723.91
2022-12-08T08:24:00.425Z,97724.44
2022-12-08T08:26:28.876Z,97733.47
2022-12-08T08:28:56.969Z,97727.84
2022-12-08T08:31:25.994Z,97727.97
2022-12-08T08:33:54.436Z,97727.53
2022-12-08T08:36:22.809Z,97720.56
2022-12-08T08:38:50.931Z,97714.78
2022-12-08T08:41:20.979Z,97713.59
2022-12-08T08:43:49.364Z,97720.59
2022-12-08T08:46:17.921Z,97716.78
2022-12-08T08:48:46.240Z,97717.91
2022-12-08T08:51:15.722Z,97717.03
2022-12-08T08:53:44.014Z,97725.31
2022-12-08T08:56:13.709Z,97717.38
2022-12-08T08:58:43.423Z,97721.22
2022-12-08T09:01:16.474Z,97722.97
2022-12-08T09:03:45.580Z,97711.50
2022-12-08T09:06:14.155Z,97711.53
2022-12-08T09:08:42.573Z,97709.56
2022-12-08T09:11:11.550Z,97712.75
2022-12-08T09:13:39.762Z,97700.97
2022-12-08T09:16:10.734Z,97712.78
2022-12-08T09:18:39.851Z,97706.63
2022-12-08T09:21:09.387Z,97708.97
2022-12-08T09:23:37.528Z,97700.78
2022-12-08T09:26:06.272Z,97709.19
2022-12-08T09:28:34.580Z,97699.69
2022-12-08T09:31:03.368Z,97685.50
2022-12-08T09:33:33.165Z,97690.06
2022-12-08T09:36:03.619Z,97676.16
2022-12-08T09:38:31.968Z,97680.25
2022-12-08T09:41:01.125Z,97674.25
2022-12-08T09:43:51.783Z,97678.28
2022-12-08T09:46:20.716Z,97677.06
2022-12-08T09:48:55.908Z,97665.75
2022-12-08T09:51:25.792Z,97669.28
2022-12-08T09:53:56.622Z,97665.44
2022-12-08T09:56:27.745Z,97664.03
2022-12-08T09:58:58.323Z,97657.75
2022-12-08T10:01:29.821Z,97669.28
2022-12-08T10:03:59.642Z,97660.56
2022-12-08T10:06:32.223Z,97660.22
2022-12-08T10:09:11.167Z,97656.75
2022-12-08T10:11:45.608Z,97664.84
2022-12-08T10:14:20.782Z,97651.63
2022-12-08T10:16:51.362Z,97665.50
2022-12-08T10:19:23.432Z,97664.25
2022-12-08T10:21:52.119Z,97660.03
2022-12-08T10:24:24.163Z,97649.88
2022-12-08T10:26:52.641Z,97650.34
2022-12-08T10:29:20.856Z,97655.84
2022-12-08T10:31:49.968Z,97647.59
2022-12-08T10:34:23.256Z,97657.34
2022-12-08T10:36:53.380Z,97653.75
2022-12-08T10:39:32.443Z,97649.88
2022-12-08T10:42:18.759Z,97643.06
2022-12-08T10:44:56.559Z,97642.31
2022-12-08T10:47:27.263Z,97642.03
2022-12-08T10:50:21.006Z,97640.97
2022-12-08T10:52:56.152Z,97644.28
2022-12-08T10:55:24.660Z,97637.09
2022-12-08T10:57:53.107Z,97636.09
2022-12-08T11:00:23.842Z,97642.97
2022-12-08T11:02:58.388Z,97646.28
2022-12-08T11:05:31.007Z,97640.47
2022-12-08T11:08:00.220Z,97619.88
2022-12-08T11:10:36.433Z,97635.84
2022-12-08T11:13:07.113Z,97640.47
2022-12-08T11:15:39.543Z,97643.25
2022-12-08T11:18:10.930Z,97636.53
2022-12-08T11:20:42.087Z,97646.13
2022-12-08T11:23:21.292Z,97634.25
2022-12-08T11:25:50.268Z,97641.72
2022-12-08T11:28:23.683Z,97638.59
2022-12-08T11:30:57.683Z,97643.19
2022-12-08T11:33:27.243Z,97635.56
2022-12-08T11:36:01.429Z,97633.72
2022-12-08T11:38:30.714Z,97637.81
2022-12-08T11:41:02.830Z,97617.25
2022-12-08T11:43:39.267Z,97626.56
2022-12-08T11:46:13.857Z,97620.88
2022-12-08T11:48:46.496Z,97629.53
2022-12-08T11:51:18.651Z,97635.88
2022-12-08T11:53:53.164Z,97630.09
2022-12-08T11:56:23.821Z,97635.50
2022-12-08T11:58:55.143Z,97632.88
2022-12-08T12:01:25.697Z,97653.69
2022-12-08T12:04:01.172Z,97631.69
2022-12-08T12:06:54.743Z,97625.13
2022-12-08T12:09:32.871Z,97630.97
2022-12-08T12:12:16.051Z,97631.16
2022-12-08T12:15:18.764Z,97629.84
2022-12-08T12:17:49.288Z,97631.81
2022-12-08T12:20:21.058Z,97626.88
2022-12-08T12:22:51.512Z,97638.44
2022-12-08T12:25:23.736Z,97628.31
2022-12-08T12:27:57.214Z,97624.63
2022-12-08T12:30:27.556Z,97623.38
2022-12-08T12:32:58.461Z,97623.22
2022-12-08T12:35:33.661Z,97626.44
2022-12-08T12:38:27.433Z,97626.63
2022-12-08T12:41:00.256Z,97615.50
2022-12-08T12:43:33.274Z,97625.06
2022-12-08T12:46:42.268Z,97615.75
2022-12-08T12:49:48.779Z,97607.00
2022-12-08T12:52:42.872Z,97607.84
2022-12-08T12:55:29.221Z,97615.25
2022-12-08T12:57:58.525Z,97604.28
2022-12-08T13:00:28.191Z,97607.25
2022-12-08T13:02:57.961Z,97607.81
2022-12-08T13:05:27.920Z,97617.88
2022-12-08T13:07:58.343Z,97615.16
2022-12-08T13:10:30.690Z,97617.84
2022-12-08T13:13:08.649Z,97618.88
2022-12-08T13:15:38.555Z,97617.63
2022-12-08T13:18:07.901Z,97617.91
2022-12-08T13:20:43.319Z,97620.00
2022-12-08T13:23:29.489Z,97609.66
2022-12-08T13:26:21.442Z,97609.38
2022-12-08T13:29:15.183Z,97613.69
2022-12-08T13:31:50.076Z,97607.91
2022-12-08T13:34:22.614Z,97608.16
2022-12-08T13:37:01.452Z,97614.09
2022-12-08T13:39:33.794Z,97609.00
2022-12-08T13:42:06.994Z,97607.91
2022-12-08T13:45:18.492Z,97609.03
2022-12-08T13:47:34.698Z,97612.78
2022-12-08T13:58:38.708Z,97607.59
2022-12-08T14:01:08.060Z,97608.75
2022-12-08T14:04:11.649Z,97605.69
2022-12-08T14:06:38.506Z,97607.16
2022-12-08T14:09:11.172Z,97611.22
2022-12-08T14:11:41.551Z,97612.88
2022-12-08T14:14:27.202Z,97618.25
2022-12-08T14:17:05.247Z,97612.56
2022-12-08T14:19:35.364Z,97612.84
2022-12-08T14:22:11.500Z,97613.38
2022-12-08T14:24:39.902Z,97607.97
2022-12-08T14:27:10.534Z,97607.41
2022-12-08T14:29:45.069Z,97616.09
2022-12-08T14:32:29.179Z,97610.66
2022-12-08T14:35:00.682Z,97607.97
2022-12-08T14:37:30.360Z,97609.28
2022-12-08T14:39:59.768Z,97605.78
2022-12-08T14:42:30.045Z,97606.88
2022-12-08T14:45:02.862Z,97617.75
2022-12-08T14:47:33.492Z,97609.88
2022-12-08T14:50:03.184Z,97618.03
2022-12-08T14:52:32.181Z,97619.63
2022-12-08T14:55:00.789Z,97622.09
2022-12-08T14:57:34.911Z,97620.44
2022-12-08T15:00:12.558Z,97617.72
2022-12-08T15:02:46.389Z,97615.81
2022-12-08T15:05:17.364Z,97616.91
2022-12-08T15:07:49.886Z,97615.91
2022-12-08T15:10:26.555Z,97618.25
2022-12-08T15:13:07.534Z,97615.53
2022-12-08T15:15:51.283Z,97611.97
2022-12-08T15:18:21.321Z,97617.19
2022-12-08T15:20:51.659Z,97611.25
2022-12-08T15:23:27.383Z,97608.44
2022-12-08T15:25:56.835Z,97608.75
2022-12-08T15:28:30.103Z,97607.41
2022-12-08T15:31:00.242Z,97604.72
2022-12-08T15:33:28.727Z,97609.59
2022-12-08T15:35:56.995Z,97611.22
2022-12-08T15:38:28.968Z,97609.34
2022-12-08T15:40:58.753Z,97609.84
2022-12-08T15:43:27.417Z,97613.13
2022-12-08T15:46:00.354Z,97608.75
2022-12-08T15:48:31.271Z,97606.31
2022-12-08T15:50:59.972Z,97609.31
2022-12-08T15:53:28.390Z,97606.59
2022-12-08T15:58:53.728Z,97606.06
2022-12-08T16:01:23.729Z,97593.84
2022-12-08T16:07:20.220Z,97591.38
2022-12-08T16:09:34.139Z,97593.81
2022-12-08T16:12:20.346Z,97596.00
2022-12-08T16:17:38.260Z,97577.50
2022-12-08T16:20:12.922Z,97589.19
2022-12-08T16:23:13.171Z,97577.00
2022-12-08T16:25:52.614Z,97582.41
2022-12-08T16:28:52.002Z,97577.47
2022-12-08T16:31:13.310Z,97578.00
2022-12-08T16:33:42.326Z,97580.69
2022-12-08T16:36:12.425Z,97583.47
2022-12-08T16:38:40.591Z,97582.81
2022-12-08T16:41:32.038Z,97584.31
2022-12-08T16:44:02.614Z,97572.06
2022-12-08T16:46:31.241Z,97586.38
2022-12-08T16:48:59.719Z,97582.00
2022-12-08T16:51:29.580Z,97581.81
2022-12-08T16:53:58.481Z,97585.00
2022-12-08T16:56:32.519Z,97576.66
2022-12-08T16:59:02.195Z,97575.28
2022-12-08T17:01:31.266Z,97573.13
2022-12-08T17:04:30.874Z,97579.13
2022-12-08T17:06:52.877Z,97577.25
2022-12-08T17:09:21.189Z,97569.59
2022-12-08T17:11:49.867Z,97574.47
2022-12-08T17:14:18.276Z,97569.59
2022-12-08T17:16:47.098Z,97568.19
2022-12-08T17:19:15.882Z,97571.97
2022-12-08T17:21:45.250Z,97577.88
2022-12-08T17:24:18.669Z,97578.28
2022-12-08T17:26:51.762Z,97569.25
2022-12-08T17:29:19.987Z,97573.28
2022-12-08T17:31:48.513Z,97577.13
2022-12-08T17:34:17.053Z,97575.97
2022-12-08T17:36:45.569Z,97573.00
2022-12-08T17:39:18.797Z,97571.22
2022-12-08T17:41:48.007Z,97564.13
2022-12-08T17:44:17.676Z,97565.78
2022-12-08T17:46:52.149Z,97566.22
2022-12-08T17:49:24.133Z,97574.47
2022-12-08T17:51:54.740Z,97577.47
2022-12-08T17:54:24.909Z,97579.09
2022-12-08T17:56:53.439Z,97567.09
2022-12-08T17:59:21.929Z,97567.09
2022-12-08T18:01:50.540Z,97565.78
2022-12-08T18:04:18.792Z,97566.88
2022-12-08T18:06:47.377Z,97563.63
2022-12-08T18:09:16.089Z,97559.00
2022-12-08T18:11:47.185Z,97559.06
2022-12-08T18:14:16.141Z,97562.81
2022-12-08T18:16:46.190Z,97557.41
2022-12-08T18:19:15.292Z,97557.13
2022-12-08T18:21:44.221Z,97554.06
2022-12-08T18:24:18.398Z,97548.19
2022-12-08T18:26:48.261Z,97543.84
2022-12-08T18:29:16.635Z,97544.09
2022-12-08T18:31:45.134Z,97550.38
2022-12-08T18:34:13.392Z,97544.66
2022-12-08T18:36:42.021Z,97531.34
2022-12-08T18:39:22.015Z,97542.16
2022-12-08T18:41:51.995Z,97541.13
2022-12-08T18:44:20.489Z,97532.97
2022-12-08T18:46:49.169Z,97530.00
2022-12-08T18:49:18.993Z,97537.88
2022-12-08T18:51:47.759Z,97527.84
2022-12-08T18:54:16.087Z,97530.28
2022-12-08T18:56:44.623Z,97535.16
2022-12-08T18:59:14.309Z,97531.56
2022-12-08T19:01:43.049Z,97530.25
2022-12-08T19:07:00.118Z,97538.13
2022-12-08T19:09:29.111Z,97534.88
2022-12-08T19:11:57.735Z,97532.44
2022-12-08T19:14:28.477Z,97535.94
2022-12-08T19:16:57.838Z,97537.03
2022-12-08T19:19:27.827Z,97536.19
2022-12-08T19:21:56.419Z,97536.25
2022-12-08T19:24:24.869Z,97546.00
2022-12-08T19:26:53.727Z,97540.56
2022-12-08T19:29:22.008Z,97537.88
2022-12-08T19:31:52.119Z,97543.25
2022-12-08T19:34:20.419Z,97541.41
2022-12-08T19:36:49.087Z,97544.94
2022-12-08T19:39:36.541Z,97534.84
2022-12-08T19:42:23.222Z,97538.66
2022-12-08T19:44:54.769Z,97530.81
2022-12-08T19:47:26.271Z,97536.16
2022-12-08T19:50:16.000Z,97534.81
2022-12-08T19:52:45.144Z,97534.84
2022-12-08T19:55:13.893Z,97531.84
2022-12-08T19:57:42.556Z,97523.69
2022-12-08T20:00:13.680Z,97529.56
2022-12-08T20:02:43.693Z,97525.66
2022-12-08T20:05:12.521Z,97519.44
2022-12-08T20:07:41.374Z,97527.63
2022-12-08T20:10:13.970Z,97526.16
2022-12-08T20:12:42.410Z,97523.00
2022-12-08T20:15:11.784Z,97530.00
2022-12-08T20:17:40.394Z,97520.25
2022-12-08T20:20:13.800Z,97526.88
2022-12-08T20:22:42.996Z,97529.81
2022-12-08T20:25:13.225Z,97517.25
2022-12-08T20:27:42.798Z,97526.72
2022-12-08T20:30:16.741Z,97529.47
2022-12-08T20:32:46.237Z,97519.69
2022-12-08T20:35:17.922Z,97529.03
2022-12-08T20:37:46.365Z,97520.22
2022-12-08T20:40:14.582Z,97528.91
2022-12-08T20:42:43.071Z,97533.53
2022-12-08T20:45:11.525Z,97524.47
2022-12-08T20:47:40.329Z,97521.78
2022-12-08T20:50:10.056Z,97529.03
2022-12-08T20:52:40.661Z,97534.34
2022-12-08T20:55:10.014Z,97537.13
2022-12-08T20:57:38.614Z,97532.56
2022-12-08T21:00:08.498Z,97529.72
2022-12-08T21:02:41.825Z,97531.88
2022-12-08T21:05:13.737Z,97531.19
2022-12-08T21:07:43.953Z,97527.81
2022-12-08T21:10:12.426Z,97528.19
2022-12-08T21:12:41.167Z,97527.38
2022-12-08T21:15:12.336Z,97533.25
2022-12-08T21:17:41.426Z,97534.16
2022-12-08T21:20:10.711Z,97534.66
2022-12-08T21:22:40.317Z,97522.75
2022-12-08T21:25:10.909Z,97528.56
2022-12-08T21:27:40.028Z,97533.09
2022-12-08T21:30:10.817Z,97536.28
2022-12-08T21:32:40.223Z,97538.06
2022-12-08T21:35:10.052Z,97537.16
2022-12-08T21:37:39.002Z,97534.31
2022-12-08T21:40:08.714Z,97529.84
2022-12-08T21:42:47.066Z,97526.16
2022-12-08T21:45:17.253Z,97531.44
2022-12-08T21:47:46.816Z,97527.97
2022-12-08T21:50:15.880Z,97522.28
2022-12-08T21:52:47.599Z,97524.28
2022-12-08T21:55:17.159Z,97519.81
2022-12-08T21:57:47.384Z,97522.75
2022-12-08T22:00:18.266Z,97519.97
2022-12-08T22:02:47.010Z,97513.16
2022-12-08T22:05:15.489Z,97505.81
2022-12-08T22:07:44.266Z,97521.59
2022-12-08T22:10:12.863Z,97509.06
2022-12-08T22:12:42.620Z,97513.72
2022-12-08T22:15:13.065Z,97512.47
2022-12-08T22:17:43.999Z,97511.41
2022-12-08T22:20:14.129Z,97513.63
2022-12-08T22:22:43.098Z,97510.97
2022-12-08T22:25:12.677Z,97510.94
2022-12-08T22:27:43.113Z,97504.97
2022-12-08T22:30:13.484Z,97502.91
2022-12-08T22:32:42.543Z,97504.19
2022-12-08T22:35:11.373Z,97503.38
2022-12-08T22:37:39.886Z,97512.91
2022-12-08T22:40:09.519Z,97508.72
2022-12-08T22:42:38.316Z,97502.28
2022-12-08T22:45:08.102Z,97516.38
2022-12-08T22:47:38.408Z,97508.06
2022-12-08T22:50:08.246Z,97507.91
2022-12-08T22:52:37.068Z,97498.50
2022-12-08T22:55:06.164Z,97509.88
2022-12-08T22:57:35.123Z,97509.94
2022-12-08T23:00:03.637Z,97509.91
2022-12-08T23:02:32.188Z,97499.63
2022-12-08T23:05:02.221Z,97500.84
2022-12-08T23:07:33.962Z,97511.38
2022-12-08T23:10:02.251Z,97511.66
2022-12-08T23:12:30.700Z,97511.72
2022-12-08T23:14:58.973Z,97500.88
2022-12-08T23:17:27.815Z,97499.22
2022-12-08T23:19:56.235Z,97486.16
2022-12-08T23:22:26.043Z,97487.47
2022-12-08T23:24:54.530Z,97484.56
2022-12-08T23:27:22.926Z,97487.00
2022-12-08T23:29:51.360Z,97484.53
2022-12-08T23:32:20.009Z,97478.56
2022-12-08T23:34:48.967Z,97486.44
2022-12-08T23:37:17.722Z,97482.09
2022-12-08T23:39:47.476Z,97472.44
2022-12-08T23:42:16.124Z,97476.38
2022-12-08T23:44:44.632Z,97476.66
2022-12-08T23:47:13.520Z,97479.91
2022-12-08T23:49:41.862Z,97484.50
2022-12-08T23:52:12.985Z,97481.31
2022-12-08T23:54:41.910Z,97478.41
2022-12-08T23:57:11.783Z,97477.19
2022-12-08T23:59:40.079Z,97481.47
